URRP 170300Z 05003MPS 9999 FEW/// 09/04 Q1013 R05/CLRD70 TEMPO 4000 BR SCT005 SCT020CB RMK QFE755/1007
QNH:(hPa/inHg/mmHg)1013 / 29.91 / 760
QFE:(hPa/inHg/mmHg)1003 / 29.61 / 752
Temperature9
Dew Point4
Visibility4000
WeatherMist
Cloud CoverSCT (500);
SCT (2000);
Transition Height900 m./3300 ft.
Transition LevelFL40
SQUAWK